createdAt,value
2019-04-11T00:01:36.845Z,5.90
2019-04-11T00:04:06.097Z,5.80
2019-04-11T00:06:35.906Z,5.80
2019-04-11T00:09:11.248Z,5.80
2019-04-11T00:11:44.199Z,5.90
2019-04-11T00:14:17.931Z,5.80
2019-04-11T00:16:50.774Z,5.70
2019-04-11T00:19:23.338Z,5.70
2019-04-11T00:21:57.219Z,5.70
2019-04-11T00:24:31.253Z,5.50
2019-04-11T00:27:04.564Z,5.50
2019-04-11T00:29:38.571Z,5.50
2019-04-11T00:32:12.272Z,5.50
2019-04-11T00:34:46.996Z,5.60
2019-04-11T00:37:19.737Z,5.50
2019-04-11T00:39:52.566Z,5.40
2019-04-11T00:42:26.176Z,5.40
2019-04-11T00:44:59.338Z,5.40
2019-04-11T00:47:33.096Z,5.40
2019-04-11T00:50:07.254Z,5.20
2019-04-11T00:52:41.247Z,5.30
2019-04-11T00:55:13.918Z,5.30
2019-04-11T00:57:47.374Z,5.30
2019-04-11T01:00:20.873Z,5.20
2019-04-11T01:02:50.172Z,5.20
2019-04-11T01:05:18.944Z,5.20
2019-04-11T01:07:47.732Z,5.20
2019-04-11T01:10:16.520Z,5.30
2019-04-11T01:12:45.413Z,5.20
2019-04-11T01:15:17.534Z,5.10
2019-04-11T01:17:47.501Z,5.10
2019-04-11T01:20:17.396Z,5.10
2019-04-11T01:22:46.610Z,5.10
2019-04-11T01:25:16.657Z,5.00
2019-04-11T01:27:45.878Z,4.90
2019-04-11T01:30:17.037Z,4.80
2019-04-11T01:32:46.507Z,5.00
2019-04-11T01:35:15.562Z,4.80
2019-04-11T01:37:44.385Z,4.60
2019-04-11T01:40:13.787Z,4.60
2019-04-11T01:42:43.663Z,4.70
2019-04-11T01:45:13.726Z,4.80
2019-04-11T01:47:59.439Z,4.80
2019-04-11T01:50:30.616Z,4.70
2019-04-11T01:53:00.584Z,4.60
2019-04-11T01:55:29.319Z,4.70
2019-04-11T01:58:00.563Z,4.70
2019-04-11T02:00:48.748Z,4.80
2019-04-11T02:03:19.517Z,4.60
2019-04-11T02:05:49.407Z,4.50
2019-04-11T02:08:19.511Z,4.50
2019-04-11T02:10:48.772Z,4.40
2019-04-11T02:13:17.767Z,4.50
2019-04-11T02:15:46.557Z,4.60
2019-04-11T02:18:15.754Z,4.70
2019-04-11T02:20:45.186Z,4.50
2019-04-11T02:23:16.894Z,4.40
2019-04-11T02:25:48.965Z,4.40
2019-04-11T02:28:30.930Z,4.40
2019-04-11T02:31:00.203Z,4.40
2019-04-11T02:33:30.524Z,4.50
2019-04-11T02:36:00.830Z,4.50
2019-04-11T02:38:30.534Z,4.40
2019-04-11T02:41:01.146Z,4.50
2019-04-11T02:43:31.811Z,4.40
2019-04-11T02:46:11.764Z,4.30
2019-04-11T02:48:31.817Z,4.30
2019-04-11T02:51:03.019Z,4.30
2019-04-11T02:53:34.410Z,4.10
2019-04-11T02:56:03.626Z,4.20
2019-04-11T02:58:52.249Z,4.20
2019-04-11T03:01:21.949Z,4.20
2019-04-11T03:03:51.940Z,4.20
2019-04-11T03:06:21.529Z,4.20
2019-04-11T03:08:50.982Z,4.20
2019-04-11T03:11:21.838Z,4.10
2019-04-11T03:13:54.857Z,4.10
2019-04-11T03:16:35.328Z,4.10
2019-04-11T03:19:14.477Z,4.00
2019-04-11T03:21:26.850Z,4.00
2019-04-11T03:23:56.187Z,4.00
2019-04-11T03:26:26.949Z,4.00
2019-04-11T03:28:57.459Z,4.10
2019-04-11T03:32:05.855Z,4.00
2019-04-11T03:35:02.599Z,3.90
2019-04-11T03:39:15.512Z,3.90
2019-04-11T03:41:48.933Z,3.90
2019-04-11T03:44:13.831Z,3.80
2019-04-11T03:46:48.295Z,3.90
2019-04-11T03:49:16.475Z,3.90
2019-04-11T03:51:43.635Z,3.90
2019-04-11T03:54:13.698Z,3.90
2019-04-11T03:56:43.261Z,3.80
2019-04-11T03:59:16.349Z,3.80
2019-04-11T04:01:44.419Z,3.80
2019-04-11T04:04:16.875Z,3.80
2019-04-11T04:06:45.744Z,3.80
2019-04-11T04:09:17.058Z,3.70
2019-04-11T04:11:49.354Z,3.80
2019-04-11T04:14:24.174Z,3.70
2019-04-11T04:16:57.392Z,3.80
2019-04-11T04:19:28.582Z,3.70
2019-04-11T04:22:16.494Z,3.70
2019-04-11T04:24:47.663Z,3.60
2019-04-11T04:27:17.350Z,3.50
2019-04-11T04:29:50.803Z,3.50
2019-04-11T04:32:18.551Z,3.50
2019-04-11T04:34:49.085Z,3.50
2019-04-11T04:37:21.386Z,3.40
2019-04-11T04:39:55.311Z,3.40
2019-04-11T04:42:27.210Z,3.50
2019-04-11T04:44:50.921Z,3.40
2019-04-11T04:47:23.726Z,3.50
2019-04-11T04:49:52.156Z,3.60
2019-04-11T04:52:21.456Z,3.50
2019-04-11T04:54:50.427Z,3.40
2019-04-11T04:57:20.220Z,3.40
2019-04-11T04:59:49.802Z,3.50
2019-04-11T05:02:20.547Z,3.40
2019-04-11T05:04:49.626Z,3.50
2019-04-11T05:07:19.452Z,3.40
2019-04-11T05:09:48.326Z,3.50
2019-04-11T05:12:18.427Z,3.60
2019-04-11T05:14:47.844Z,3.60
2019-04-11T05:17:36.415Z,3.50
2019-04-11T05:20:07.364Z,3.60
2019-04-11T05:22:37.216Z,3.60
2019-04-11T05:25:06.766Z,3.60
2019-04-11T05:27:35.842Z,3.60
2019-04-11T05:30:06.979Z,3.70
2019-04-11T05:32:37.511Z,3.70
2019-04-11T05:35:07.159Z,3.80
2019-04-11T05:37:36.343Z,3.70
2019-04-11T05:40:07.434Z,3.70
2019-04-11T05:42:37.647Z,3.70
2019-04-11T05:45:15.333Z,3.50
2019-04-11T05:47:37.965Z,3.60
2019-04-11T05:50:11.972Z,3.80
2019-04-11T05:52:40.034Z,3.90
2019-04-11T05:55:12.385Z,4.00
2019-04-11T05:57:43.079Z,4.10
2019-04-11T06:00:13.887Z,4.20
2019-04-11T06:02:45.671Z,4.20
2019-04-11T06:05:33.820Z,4.20
2019-04-11T06:08:06.093Z,4.20
2019-04-11T06:10:54.672Z,4.20
2019-04-11T06:13:25.308Z,4.20
2019-04-11T06:15:59.385Z,4.30
2019-04-11T06:18:37.372Z,4.40
2019-04-11T06:21:11.689Z,4.40
2019-04-11T06:23:43.399Z,4.40
2019-04-11T06:26:16.580Z,4.30
2019-04-11T06:28:49.468Z,4.40
2019-04-11T06:31:36.646Z,4.50
2019-04-11T06:34:13.325Z,4.70
2019-04-11T06:40:05.143Z,4.90
2019-04-11T06:42:59.412Z,5.00
2019-04-11T06:45:44.308Z,5.10
2019-04-11T06:48:15.728Z,5.10
2019-04-11T06:50:47.197Z,5.10
2019-04-11T06:53:37.271Z,5.10
2019-04-11T06:56:08.304Z,5.20
2019-04-11T06:58:39.475Z,5.30
2019-04-11T07:01:16.673Z,5.40
2019-04-11T07:03:51.055Z,5.40
2019-04-11T07:06:21.826Z,5.50
2019-04-11T07:09:07.499Z,5.70
2019-04-11T07:11:40.674Z,5.60
2019-04-11T07:14:29.450Z,5.80
2019-04-11T07:17:16.462Z,5.90
2019-04-11T07:19:47.927Z,5.80
2019-04-11T07:22:35.119Z,6.00
2019-04-11T07:25:10.316Z,6.10
2019-04-11T07:27:40.923Z,6.10
2019-04-11T07:30:15.683Z,6.30
2019-04-11T07:32:45.101Z,6.30
2019-04-11T07:35:33.662Z,6.20
2019-04-11T07:38:03.114Z,6.30
2019-04-11T07:40:40.947Z,6.40
2019-04-11T07:43:13.307Z,6.40
2019-04-11T07:45:49.002Z,6.20
2019-04-11T07:48:25.333Z,6.50
2019-04-11T07:50:55.411Z,6.70
2019-04-11T07:53:26.259Z,6.70
2019-04-11T07:55:55.514Z,6.80
2019-04-11T07:58:26.017Z,6.80
2019-04-11T08:01:02.076Z,6.90
2019-04-11T08:03:49.241Z,7.20
2019-04-11T08:06:20.010Z,7.50
2019-04-11T08:08:51.390Z,7.60
2019-04-11T08:11:27.973Z,7.70
2019-04-11T08:14:04.748Z,7.80
2019-04-11T08:16:44.901Z,7.70
2019-04-11T08:19:20.580Z,7.50
2019-04-11T08:21:59.176Z,7.80
2019-04-11T08:24:32.567Z,8.00
2019-04-11T08:27:09.529Z,8.20
2019-04-11T08:29:38.520Z,8.20
2019-04-11T08:32:15.759Z,8.40
2019-04-11T08:34:51.291Z,8.50
2019-04-11T08:37:37.983Z,8.60
2019-04-11T08:40:09.434Z,8.90
2019-04-11T08:42:49.053Z,8.70
2019-04-11T08:45:19.551Z,8.60
2019-04-11T08:47:54.321Z,8.70
2019-04-11T08:50:22.713Z,9.10
2019-04-11T08:52:56.125Z,9.30
2019-04-11T08:55:27.337Z,9.30
2019-04-11T08:57:58.319Z,9.10
2019-04-11T09:00:33.059Z,9.00
2019-04-11T09:03:04.901Z,9.30
2019-04-11T09:05:47.573Z,9.70
2019-04-11T09:08:34.265Z,9.70
2019-04-11T09:11:04.902Z,9.60
2019-04-11T09:13:52.443Z,9.80
2019-04-11T09:16:39.628Z,9.90
2019-04-11T09:19:11.566Z,10.00
2019-04-11T09:21:58.368Z,10.50
2019-04-11T09:24:44.220Z,10.70
2019-04-11T09:27:31.299Z,10.90
2019-04-11T09:30:15.860Z,11.00
2019-04-11T09:33:02.544Z,11.20
2019-04-11T09:35:41.623Z,11.80
2019-04-11T09:38:15.990Z,12.80
2019-04-11T09:40:46.608Z,13.70
2019-04-11T09:43:17.927Z,14.40
2019-04-11T09:46:04.120Z,15.30
2019-04-11T09:48:34.773Z,16.90
2019-04-11T09:51:21.341Z,17.90
2019-04-11T09:54:01.491Z,18.70
2019-04-11T09:56:33.307Z,18.90
2019-04-11T09:59:06.809Z,20.10
2019-04-11T10:01:37.267Z,21.00
2019-04-11T10:04:06.927Z,21.90
2019-04-11T10:06:40.996Z,22.50
2019-04-11T10:09:11.362Z,22.30
2019-04-11T10:11:59.009Z,21.90
2019-04-11T10:14:29.303Z,22.50
2019-04-11T10:17:15.308Z,23.20
2019-04-11T10:19:44.392Z,23.80
2019-04-11T10:22:34.037Z,24.60
2019-04-11T10:25:21.239Z,25.40
2019-04-11T10:28:09.211Z,25.00
2019-04-11T10:30:50.270Z,25.60
2019-04-11T10:33:21.056Z,25.60
2019-04-11T10:36:00.842Z,25.60
2019-04-11T10:38:30.716Z,26.00
2019-04-11T10:41:19.465Z,26.40
2019-04-11T10:43:49.534Z,26.70
2019-04-11T10:47:06.904Z,28.20
2019-04-11T10:53:29.184Z,28.40
2019-04-11T11:03:29.216Z,28.90
2019-04-11T11:06:33.023Z,29.10
2019-04-11T11:16:32.638Z,29.10
2019-04-11T11:29:29.001Z,27.90
2019-04-11T11:32:31.644Z,28.40
2019-04-11T11:35:03.312Z,28.60
2019-04-11T11:37:39.659Z,28.70
2019-04-11T11:40:26.256Z,28.70
2019-04-11T11:43:09.279Z,30.10
2019-04-11T11:45:39.769Z,30.10
2019-04-11T11:48:14.781Z,30.40
2019-04-11T11:50:40.794Z,30.90
2019-04-11T11:53:13.213Z,31.00
2019-04-11T11:55:43.611Z,31.10
2019-04-11T11:58:19.958Z,30.80
2019-04-11T12:00:53.549Z,30.20
2019-04-11T12:03:40.448Z,30.60
2019-04-11T12:06:09.637Z,29.90
2019-04-11T12:08:56.825Z,30.80
2019-04-11T12:11:26.390Z,31.30
2019-04-11T12:14:13.333Z,32.60
2019-04-11T12:17:03.810Z,32.60
2019-04-11T12:19:44.678Z,32.30
2019-04-11T12:22:06.238Z,31.20
2019-04-11T12:24:56.539Z,30.00
2019-04-11T12:27:43.719Z,30.30
2019-04-11T12:30:15.707Z,30.40
2019-04-11T12:32:48.783Z,31.20
2019-04-11T12:35:24.641Z,32.00
2019-04-11T12:38:09.199Z,32.20
2019-04-11T12:40:56.318Z,32.70
2019-04-11T12:43:26.751Z,32.70
2019-04-11T12:46:13.744Z,32.30
2019-04-11T12:48:43.340Z,31.30
2019-04-11T12:51:30.071Z,31.70
2019-04-11T12:54:00.610Z,31.90
2019-04-11T12:56:31.338Z,33.20
2019-04-11T12:59:00.329Z,32.10
2019-04-11T13:01:30.753Z,31.40
2019-04-11T13:04:07.517Z,32.40
2019-04-11T13:06:43.976Z,31.60
2019-04-11T13:09:26.478Z,31.90
2019-04-11T13:11:56.920Z,32.50
2019-04-11T13:14:30.025Z,32.70
2019-04-11T13:17:00.554Z,32.50
2019-04-11T13:19:43.063Z,33.20
2019-04-11T13:22:25.549Z,33.80
2019-04-11T13:25:12.594Z,32.60
2019-04-11T13:27:42.885Z,32.50
2019-04-11T13:30:22.541Z,32.40
2019-04-11T13:32:54.113Z,32.60
2019-04-11T13:35:27.387Z,33.40
2019-04-11T13:38:03.781Z,33.80
2019-04-11T13:40:43.808Z,34.10
2019-04-11T13:43:32.143Z,34.30
2019-04-11T13:46:05.047Z,34.00
2019-04-11T13:48:51.832Z,33.40
2019-04-11T13:51:31.525Z,33.50
2019-04-11T13:54:18.440Z,33.70
2019-04-11T13:56:51.918Z,33.70
2019-04-11T13:59:34.640Z,33.60
2019-04-11T14:02:14.858Z,34.60
2019-04-11T14:04:54.603Z,34.00
2019-04-11T14:07:27.420Z,33.60
2019-04-11T14:10:01.081Z,33.10
2019-04-11T14:12:33.286Z,33.30
2019-04-11T14:15:13.436Z,33.20
2019-04-11T14:17:46.735Z,31.90
2019-04-11T14:20:29.416Z,31.90
2019-04-11T14:23:04.878Z,31.30
2019-04-11T14:25:35.827Z,30.90
2019-04-11T14:28:08.158Z,31.40
2019-04-11T14:30:39.333Z,32.00
2019-04-11T14:33:08.416Z,32.50
2019-04-11T14:35:41.325Z,33.10
2019-04-11T14:38:23.735Z,33.40
2019-04-11T14:41:01.664Z,32.70
2019-04-11T14:43:26.520Z,32.20
2019-04-11T14:45:57.058Z,32.30
2019-04-11T14:48:37.868Z,33.10
2019-04-11T14:51:15.784Z,33.70
2019-04-11T14:53:55.853Z,33.60
2019-04-11T14:56:29.278Z,32.70
2019-04-11T14:59:16.095Z,32.00
2019-04-11T15:01:49.492Z,32.50
2019-04-11T15:04:26.243Z,32.10
2019-04-11T15:06:59.909Z,31.90
2019-04-11T15:09:36.331Z,31.90
2019-04-11T15:12:12.599Z,31.70
2019-04-11T15:14:48.539Z,31.50
2019-04-11T15:17:18.088Z,31.70
2019-04-11T15:19:48.506Z,31.50
2019-04-11T15:22:18.902Z,31.30
2019-04-11T15:24:55.353Z,31.20
2019-04-11T15:27:31.652Z,31.10
2019-04-11T15:30:04.849Z,31.20
2019-04-11T15:32:35.367Z,31.10
2019-04-11T15:35:04.969Z,30.90
2019-04-11T15:37:38.570Z,30.60
2019-04-11T15:40:13.734Z,30.60
2019-04-11T15:42:53.453Z,30.70
2019-04-11T15:45:29.751Z,30.30
2019-04-11T15:48:06.081Z,30.10
2019-04-11T15:50:52.928Z,29.10
2019-04-11T15:53:25.877Z,28.90
2019-04-11T15:55:59.458Z,28.60
2019-04-11T15:58:30.194Z,28.10
2019-04-11T16:01:18.765Z,27.30
2019-04-11T16:03:49.295Z,27.50
2019-04-11T16:06:38.930Z,28.10
2019-04-11T16:09:09.725Z,27.90
2019-04-11T16:11:55.697Z,28.30
2019-04-11T16:14:24.934Z,28.20
2019-04-11T16:16:55.597Z,28.90
2019-04-11T16:19:38.343Z,28.80
2019-04-11T16:22:25.441Z,28.20
2019-04-11T16:24:59.269Z,28.50
2019-04-11T16:27:30.100Z,28.20
2019-04-11T16:30:07.899Z,27.90
2019-04-11T16:32:55.633Z,27.90
2019-04-11T16:35:26.599Z,27.90
2019-04-11T16:38:06.504Z,27.30
2019-04-11T16:40:53.429Z,27.10
2019-04-11T16:43:24.526Z,27.00
2019-04-11T16:46:11.177Z,26.20
2019-04-11T16:48:41.277Z,25.80
2019-04-11T16:51:10.167Z,25.40
2019-04-11T16:53:49.334Z,25.30
2019-04-11T16:56:18.437Z,25.10
2019-04-11T16:58:50.140Z,24.80
2019-04-11T17:01:17.730Z,25.00
2019-04-11T17:03:46.509Z,24.70
2019-04-11T17:06:37.673Z,24.40
2019-04-11T17:09:22.196Z,24.00
2019-04-11T17:11:51.047Z,23.70
2019-04-11T17:14:27.955Z,23.50
2019-04-11T17:16:51.530Z,23.20
2019-04-11T17:19:21.546Z,23.00
2019-04-11T17:21:50.542Z,22.60
2019-04-11T17:24:19.433Z,22.10
2019-04-11T17:26:48.300Z,22.10
2019-04-11T17:29:20.207Z,21.80
2019-04-11T17:31:55.876Z,21.50
2019-04-11T17:34:25.843Z,21.20
2019-04-11T17:37:02.571Z,20.80
2019-04-11T17:39:36.619Z,20.20
2019-04-11T17:42:04.219Z,20.10
2019-04-11T17:44:36.459Z,20.00
2019-04-11T17:47:10.158Z,19.90
2019-04-11T17:49:42.329Z,19.60
2019-04-11T17:52:14.719Z,19.30
2019-04-11T17:54:54.176Z,19.00
2019-04-11T17:57:26.694Z,18.50
2019-04-11T17:59:56.735Z,17.90
2019-04-11T18:02:29.066Z,17.50
2019-04-11T18:05:00.326Z,17.30
2019-04-11T18:07:34.041Z,16.90
2019-04-11T18:10:03.458Z,16.50
2019-04-11T18:12:32.118Z,15.90
2019-04-11T18:15:02.294Z,15.10
2019-04-11T18:17:34.951Z,14.30
2019-04-11T18:20:04.524Z,13.60
2019-04-11T18:22:34.198Z,13.40
2019-04-11T18:25:03.153Z,13.20
2019-04-11T18:27:32.876Z,13.00
2019-04-11T18:30:02.344Z,12.70
2019-04-11T18:32:31.367Z,12.40
2019-04-11T18:35:02.379Z,12.30
2019-04-11T18:37:32.103Z,12.20
2019-04-11T18:40:06.026Z,12.10
2019-04-11T18:42:32.741Z,11.90
2019-04-11T18:45:01.931Z,11.70
2019-04-11T18:47:31.120Z,11.60
2019-04-11T18:50:00.010Z,11.40
2019-04-11T18:52:29.097Z,11.30
2019-04-11T18:54:58.142Z,11.20
2019-04-11T18:57:27.138Z,11.10
2019-04-11T18:59:56.103Z,10.90
2019-04-11T19:02:24.984Z,10.90
2019-04-11T19:04:54.207Z,10.90
2019-04-11T19:07:28.058Z,10.90
2019-04-11T19:09:53.752Z,10.80
2019-04-11T19:12:23.028Z,10.60
2019-04-11T19:14:52.127Z,10.60
2019-04-11T19:17:21.131Z,10.50
2019-04-11T19:19:49.945Z,10.30
2019-04-11T19:22:20.858Z,10.30
2019-04-11T19:24:50.234Z,10.30
2019-04-11T19:27:20.470Z,10.10
2019-04-11T19:29:51.105Z,10.00
2019-04-11T19:32:20.103Z,10.10
2019-04-11T19:34:49.087Z,10.10
2019-04-11T19:37:18.204Z,10.00
2019-04-11T19:39:47.801Z,9.90
2019-04-11T19:42:19.540Z,9.80
2019-04-11T19:44:49.641Z,9.70
2019-04-11T19:47:21.419Z,9.70
2019-04-11T19:49:48.737Z,9.70
2019-04-11T19:52:17.845Z,9.60
2019-04-11T19:54:47.014Z,9.60
2019-04-11T19:57:16.166Z,9.50
2019-04-11T19:59:46.538Z,9.50
2019-04-11T20:02:17.456Z,9.30
2019-04-11T20:04:46.918Z,9.30
2019-04-11T20:07:21.347Z,9.30
2019-04-11T20:09:52.293Z,9.20
2019-04-11T20:12:22.293Z,9.20
2019-04-11T20:15:04.635Z,9.10
2019-04-11T20:17:27.350Z,9.10
2019-04-11T20:20:01.396Z,9.10
2019-04-11T20:22:28.308Z,9.00
2019-04-11T20:24:57.787Z,9.10
2019-04-11T20:27:27.752Z,9.00
2019-04-11T20:29:57.038Z,8.90
2019-04-11T20:32:30.563Z,8.90
2019-04-11T20:35:00.528Z,8.90
2019-04-11T20:37:38.696Z,8.90
2019-04-11T20:43:12.144Z,8.80
2019-04-11T20:46:05.186Z,8.80
2019-04-11T20:48:47.224Z,8.80
2019-04-11T20:51:17.566Z,8.70
2019-04-11T20:53:47.250Z,8.50
2019-04-11T20:56:24.170Z,8.40
2019-04-11T20:58:47.371Z,8.60
2019-04-11T21:01:16.189Z,8.60
2019-04-11T21:03:54.194Z,8.50
2019-04-11T21:06:22.961Z,8.50
2019-04-11T21:08:51.802Z,8.40
2019-04-11T21:11:37.152Z,8.40
2019-04-11T21:14:03.875Z,8.40
2019-04-11T21:16:33.957Z,8.30
2019-04-11T21:19:03.000Z,8.30
2019-04-11T21:21:32.294Z,8.30
2019-04-11T21:24:01.611Z,8.30
2019-04-11T21:26:30.894Z,8.20
2019-04-11T21:29:00.504Z,8.20
2019-04-11T21:31:31.076Z,8.20
2019-04-11T21:34:02.308Z,8.30
2019-04-11T21:36:31.731Z,8.20
2019-04-11T21:39:03.898Z,8.20
2019-04-11T21:41:35.981Z,8.00
2019-04-11T21:44:05.844Z,8.00
2019-04-11T21:46:37.344Z,8.00
2019-04-11T21:49:06.322Z,7.90
2019-04-11T21:51:34.558Z,7.90
2019-04-11T21:54:04.165Z,7.90
2019-04-11T21:56:33.486Z,8.00
2019-04-11T21:59:02.349Z,8.10
2019-04-11T22:01:34.218Z,7.90
2019-04-11T22:04:07.300Z,7.90
2019-04-11T22:06:40.123Z,7.80
2019-04-11T22:09:10.291Z,7.80
2019-04-11T22:11:40.623Z,7.70
2019-04-11T22:14:12.656Z,7.70
2019-04-11T22:16:45.387Z,7.70
2019-04-11T22:19:15.451Z,7.80
2019-04-11T22:21:55.413Z,7.70
2019-04-11T22:24:29.660Z,7.70
2019-04-11T22:27:22.012Z,7.60
2019-04-11T22:29:57.192Z,7.50
2019-04-11T22:32:26.987Z,7.60
2019-04-11T22:34:59.885Z,7.60
2019-04-11T22:37:33.157Z,7.60
2019-04-11T22:40:02.681Z,7.50
2019-04-11T22:42:35.704Z,7.50
2019-04-11T22:45:30.290Z,7.50
2019-04-11T22:48:01.169Z,7.40
2019-04-11T22:50:30.626Z,7.40
2019-04-11T22:53:01.871Z,7.40
2019-04-11T22:55:35.448Z,7.40
2019-04-11T22:58:06.059Z,7.30
2019-04-11T23:01:30.111Z,7.40
2019-04-11T23:04:04.250Z,7.40
2019-04-11T23:06:36.511Z,7.30
2019-04-11T23:09:07.840Z,7.30
2019-04-11T23:11:38.629Z,7.10
2019-04-11T23:14:09.055Z,7.20
2019-04-11T23:16:41.874Z,7.10
2019-04-11T23:19:14.373Z,7.10
2019-04-11T23:21:43.419Z,7.20
2019-04-11T23:24:12.533Z,7.20
2019-04-11T23:26:44.793Z,7.10
2019-04-11T23:29:16.985Z,7.10
2019-04-11T23:31:50.399Z,7.00
2019-04-11T23:34:22.118Z,6.90
2019-04-11T23:36:51.806Z,6.90
2019-04-11T23:39:22.708Z,6.90
2019-04-11T23:41:51.042Z,6.90
2019-04-11T23:44:20.337Z,7.00
2019-04-11T23:46:51.821Z,6.70
2019-04-11T23:49:20.111Z,6.60
2019-04-11T23:51:48.861Z,6.50
2019-04-11T23:54:23.041Z,6.50
2019-04-11T23:56:47.915Z,6.40
2019-04-11T23:59:16.672Z,6.50
